Time,TemperatureF,DewpointF,PressureIn,WindDirection,WindDirectionDegrees,WindSpeedMPH,WindSpeedGustMPH,Humidity,HourlyPrecipIn,Conditions,Clouds,dailyrainin,SoftwareType,DateUTC
2013-10-22 00:13:00,35.0,34.0,30.12,East,91,0.0,0.0,96,0.00,,,0.10,,2013-10-22 05:13:00,
2013-10-22 00:22:00,35.0,34.0,30.12,East,91,0.0,0.0,96,0.00,,,0.10,,2013-10-22 05:22:00,
2013-10-22 00:43:00,34.0,33.0,30.12,East,91,0.0,0.0,96,0.00,,,0.10,,2013-10-22 05:43:00,
2013-10-22 00:52:00,34.0,33.0,30.12,East,91,0.0,0.0,96,0.00,,,0.10,,2013-10-22 05:52:00,
2013-10-22 01:12:00,34.0,33.0,30.12,East,91,0.0,0.0,97,0.00,,,0.10,,2013-10-22 06:12:00,
2013-10-22 01:22:00,34.0,33.0,30.11,East,91,0.0,0.0,96,0.00,,,0.10,,2013-10-22 06:22:00,
2013-10-22 01:42:00,33.0,32.0,30.11,East,91,0.0,0.0,97,0.00,,,0.10,,2013-10-22 06:42:00,
2013-10-22 01:53:00,33.0,32.0,30.11,East,91,0.0,0.0,97,0.00,,,0.10,,2013-10-22 06:53:00,
2013-10-22 02:12:00,34.0,34.0,30.11,East,91,0.0,0.0,98,0.00,,,0.10,,2013-10-22 07:12:00,
2013-10-22 02:22:00,35.0,34.0,30.11,East,91,0.0,0.0,98,0.00,,,0.10,,2013-10-22 07:22:00,
2013-10-22 02:42:00,35.0,34.0,30.11,East,91,0.0,0.0,98,0.00,,,0.10,,2013-10-22 07:42:00,
2013-10-22 02:52:00,35.0,34.0,30.11,East,91,0.0,0.0,98,0.00,,,0.10,,2013-10-22 07:52:00,
2013-10-22 03:12:00,35.0,34.0,30.11,East,91,0.0,0.0,98,0.00,,,0.10,,2013-10-22 08:12:00,
2013-10-22 03:22:00,35.0,34.0,30.10,East,91,0.0,0.0,98,0.00,,,0.10,,2013-10-22 08:22:00,
2013-10-22 03:42:00,35.0,34.0,30.09,East,91,0.0,0.0,97,0.00,,,0.10,,2013-10-22 08:42:00,
2013-10-22 03:52:00,34.0,33.0,30.09,East,91,0.0,0.0,97,0.00,,,0.10,,2013-10-22 08:52:00,
2013-10-22 04:11:00,34.0,33.0,30.09,East,91,0.0,0.0,97,0.00,,,0.10,,2013-10-22 09:11:00,
2013-10-22 04:22:00,34.0,33.0,30.09,East,91,0.0,0.0,97,0.00,,,0.10,,2013-10-22 09:22:00,
2013-10-22 04:43:00,34.0,33.0,30.09,East,91,0.0,0.0,97,0.00,,,0.10,,2013-10-22 09:43:00,
2013-10-22 04:54:00,34.0,33.0,30.09,East,91,0.0,0.0,97,0.00,,,0.10,,2013-10-22 09:54:00,
2013-10-22 05:13:00,33.0,32.0,30.09,East,91,0.0,0.0,97,0.00,,,0.10,,2013-10-22 10:13:00,
2013-10-22 05:23:00,33.0,32.0,30.09,East,91,0.0,0.0,97,0.00,,,0.10,,2013-10-22 10:23:00,
2013-10-22 05:43:00,33.0,32.0,30.09,East,91,0.0,0.0,97,0.00,,,0.10,,2013-10-22 10:43:00,
2013-10-22 05:53:00,33.0,32.0,30.09,East,91,0.0,0.0,97,0.00,,,0.10,,2013-10-22 10:53:00,
2013-10-22 06:12:00,33.0,32.0,30.09,East,91,0.0,0.0,97,0.00,,,0.10,,2013-10-22 11:12:00,
2013-10-22 06:22:00,33.0,32.0,30.10,East,91,0.0,0.0,97,0.00,,,0.10,,2013-10-22 11:22:00,
2013-10-22 06:42:00,33.0,32.0,30.10,East,91,0.0,0.0,98,0.00,,,0.10,,2013-10-22 11:42:00,
2013-10-22 06:53:00,33.0,32.0,30.10,East,91,0.0,0.0,97,0.00,,,0.10,,2013-10-22 11:53:00,
2013-10-22 07:11:00,32.0,31.0,30.09,East,91,0.0,0.0,97,0.00,,,0.10,,2013-10-22 12:11:00,
2013-10-22 07:22:00,32.0,32.0,30.09,East,91,0.0,0.0,98,0.00,,,0.10,,2013-10-22 12:22:00,
2013-10-22 07:42:00,32.0,32.0,30.09,East,91,0.0,0.0,98,0.00,,,0.10,,2013-10-22 12:42:00,
2013-10-22 07:52:00,32.0,32.0,30.10,East,91,0.0,0.0,98,0.00,,,0.10,,2013-10-22 12:52:00,
2013-10-22 08:12:00,32.0,32.0,30.10,East,91,0.0,0.0,98,0.00,,,0.10,,2013-10-22 13:12:00,
2013-10-22 08:21:00,32.0,32.0,30.10,East,91,0.0,0.0,98,0.00,,,0.10,,2013-10-22 13:21:00,
2013-10-22 08:42:00,33.0,32.0,30.10,East,91,0.0,0.0,98,0.00,,,0.10,,2013-10-22 13:42:00,
2013-10-22 08:53:00,35.0,34.0,30.10,East,91,0.0,0.0,98,0.00,,,0.10,,2013-10-22 13:53:00,
2013-10-22 09:12:00,37.0,37.0,30.09,East,91,0.0,0.0,99,0.00,,,0.10,,2013-10-22 14:12:00,
2013-10-22 09:21:00,39.0,39.0,30.09,East,91,0.0,0.0,99,0.00,,,0.10,,2013-10-22 14:21:00,
2013-10-22 09:42:00,42.0,42.0,30.09,ENE,61,0.0,0.0,99,0.00,,,0.10,,2013-10-22 14:42:00,
2013-10-22 09:52:00,43.0,43.0,30.09,NNE,23,0.0,0.0,99,0.00,,,0.10,,2013-10-22 14:52:00,
2013-10-22 10:12:00,44.0,44.0,30.09,West,275,0.0,0.0,99,0.00,,,0.10,,2013-10-22 15:12:00,
2013-10-22 10:22:00,45.0,45.0,30.08,West,277,0.0,1.0,99,0.00,,,0.10,,2013-10-22 15:22:00,
2013-10-22 10:43:00,47.0,44.0,30.07,West,265,0.0,4.0,90,0.00,,,0.10,,2013-10-22 15:43:00,
2013-10-22 10:54:00,49.0,45.0,30.07,NNE,18,0.0,2.0,85,0.00,,,0.10,,2013-10-22 15:54:00,
2013-10-22 11:13:00,50.0,45.0,30.06,West,277,0.0,2.0,82,0.00,,,0.10,,2013-10-22 16:13:00,
2013-10-22 11:23:00,52.0,43.0,30.06,West,269,1.0,5.0,72,0.00,,,0.10,,2013-10-22 16:23:00,
2013-10-22 11:43:00,54.0,44.0,30.05,SE,136,1.0,7.0,68,0.00,,,0.10,,2013-10-22 16:43:00,
2013-10-22 11:53:00,57.0,45.0,30.05,WNW,300,1.0,10.0,65,0.00,,,0.10,,2013-10-22 16:53:00,
2013-10-22 12:12:00,58.0,45.0,30.05,WNW,301,2.0,6.0,62,0.00,,,0.10,,2013-10-22 17:12:00,
2013-10-22 12:22:00,59.0,46.0,30.04,WSW,246,1.0,8.0,61,0.00,,,0.05,,2013-10-22 17:22:00,
2013-10-22 12:43:00,60.0,47.0,30.03,West,281,2.0,9.0,61,0.00,,,0.05,,2013-10-22 17:43:00,
2013-10-22 12:52:00,61.0,46.0,30.02,North,349,3.0,9.0,58,0.00,,,0.05,,2013-10-22 17:52:00,
2013-10-22 13:12:00,62.0,46.0,30.01,NW,308,1.0,7.0,56,0.00,,,0.05,,2013-10-22 18:12:00,
2013-10-22 13:22:00,62.0,46.0,30.01,WNW,284,2.0,8.0,56,0.00,,,0.00,,2013-10-22 18:22:00,
2013-10-22 13:42:00,63.0,48.0,30.00,ESE,110,1.0,8.0,59,0.00,,,0.00,,2013-10-22 18:42:00,
2013-10-22 13:52:00,64.0,49.0,29.99,WNW,283,2.0,7.0,58,0.00,,,0.00,,2013-10-22 18:52:00,
2013-10-22 14:12:00,64.0,48.0,29.98,NW,309,2.0,8.0,57,0.00,,,0.00,,2013-10-22 19:12:00,
2013-10-22 14:22:00,64.0,47.0,29.98,NW,317,3.0,8.0,55,0.00,,,0.00,,2013-10-22 19:22:00,
2013-10-22 14:42:00,64.0,48.0,29.98,WNW,287,4.0,11.0,56,0.00,,,0.00,,2013-10-22 19:42:00,
2013-10-22 14:53:00,65.0,49.0,29.97,NW,308,2.0,8.0,57,0.00,,,0.00,,2013-10-22 19:53:00,
2013-10-22 15:11:00,65.0,47.0,29.97,West,269,4.0,8.0,53,0.00,,,0.00,,2013-10-22 20:11:00,
2013-10-22 15:22:00,65.0,47.0,29.98,WNW,297,4.0,8.0,53,0.00,,,0.00,,2013-10-22 20:22:00,
2013-10-22 15:43:00,66.0,48.0,29.97,West,273,2.0,8.0,52,0.00,,,0.00,,2013-10-22 20:43:00,
2013-10-22 15:52:00,66.0,48.0,29.97,West,269,4.0,9.0,53,0.00,,,0.00,,2013-10-22 20:52:00,
2013-10-22 16:12:00,66.0,47.0,29.97,West,264,4.0,11.0,51,0.00,,,0.00,,2013-10-22 21:12:00,
2013-10-22 16:23:00,66.0,47.0,29.97,West,277,4.0,8.0,50,0.00,,,0.00,,2013-10-22 21:23:00,
2013-10-22 16:44:00,66.0,48.0,29.98,WSW,246,3.0,8.0,52,0.00,,,0.00,,2013-10-22 21:44:00,
2013-10-22 16:54:00,66.0,47.0,29.97,West,273,4.0,8.0,50,0.00,,,0.00,,2013-10-22 21:54:00,
2013-10-22 17:14:00,66.0,47.0,29.97,West,264,4.0,9.0,51,0.00,,,0.00,,2013-10-22 22:14:00,
2013-10-22 17:24:00,66.0,47.0,29.97,West,275,2.0,7.0,51,0.00,,,0.00,,2013-10-22 22:24:00,
2013-10-22 17:44:00,66.0,48.0,29.97,WNW,290,3.0,8.0,52,0.00,,,0.00,,2013-10-22 22:44:00,
2013-10-22 17:54:00,65.0,47.0,29.97,West,269,1.0,7.0,53,0.00,,,0.00,,2013-10-22 22:54:00,
2013-10-22 18:12:00,64.0,47.0,29.97,WNW,282,1.0,6.0,55,0.00,,,0.00,,2013-10-22 23:12:00,
2013-10-22 18:23:00,63.0,48.0,29.97,West,274,0.0,4.0,59,0.00,,,0.00,,2013-10-22 23:23:00,
2013-10-22 18:43:00,61.0,50.0,29.97,WNW,284,0.0,0.0,66,0.00,,,0.00,,2013-10-22 23:43:00,
2013-10-22 18:53:00,59.0,49.0,29.97,WNW,284,0.0,0.0,70,0.00,,,0.00,,2013-10-22 23:53:00,
2013-10-22 19:02:00,59.0,49.0,29.97,WNW,284,0.0,0.0,70,0.00,,,0.00,,2013-10-23 00:02:00,
2013-10-22 19:11:00,59.0,49.0,29.97,WNW,284,0.0,0.0,70,0.00,,,0.00,,2013-10-23 00:11:00,
2013-10-22 19:22:00,55.0,47.0,29.98,WNW,284,0.0,0.0,75,0.00,,,0.00,,2013-10-23 00:22:00,
2013-10-22 19:42:00,53.0,46.0,29.98,WNW,284,0.0,0.0,78,0.00,,,0.00,,2013-10-23 00:42:00,
2013-10-22 19:52:00,51.0,45.0,29.99,WNW,284,0.0,0.0,80,0.00,,,0.00,,2013-10-23 00:52:00,
2013-10-22 20:11:00,50.0,45.0,30.00,WNW,284,0.0,0.0,83,0.00,,,0.00,,2013-10-23 01:11:00,
2013-10-22 20:23:00,49.0,45.0,30.01,WNW,284,0.0,0.0,86,0.00,,,0.00,,2013-10-23 01:23:00,
2013-10-22 20:42:00,48.0,44.0,30.01,WNW,284,0.0,0.0,87,0.00,,,0.00,,2013-10-23 01:42:00,
2013-10-22 20:52:00,47.0,44.0,30.02,WNW,284,0.0,0.0,88,0.00,,,0.00,,2013-10-23 01:52:00,
2013-10-22 21:11:00,47.0,44.0,30.03,WNW,284,0.0,0.0,89,0.00,,,0.00,,2013-10-23 02:11:00,
2013-10-22 21:22:00,47.0,45.0,30.03,WNW,284,0.0,0.0,91,0.00,,,0.00,,2013-10-23 02:22:00,
2013-10-22 21:42:00,47.0,44.0,30.03,WNW,284,0.0,0.0,89,0.00,,,0.00,,2013-10-23 02:42:00,
2013-10-22 21:54:00,47.0,44.0,30.04,WNW,284,0.0,0.0,89,0.00,,,0.00,,2013-10-23 02:54:00,
2013-10-22 22:12:00,46.0,43.0,30.04,WNW,284,0.0,0.0,89,0.00,,,0.00,,2013-10-23 03:12:00,
2013-10-22 22:22:00,46.0,43.0,30.05,WNW,284,0.0,0.0,90,0.00,,,0.00,,2013-10-23 03:22:00,
2013-10-22 22:44:00,45.0,43.0,30.06,WNW,284,0.0,0.0,91,0.00,,,0.00,,2013-10-23 03:44:00,
2013-10-22 22:55:00,45.0,43.0,30.06,WNW,284,0.0,0.0,91,0.00,,,0.00,,2013-10-23 03:55:00,
2013-10-22 23:14:00,44.0,42.0,30.06,WNW,284,0.0,0.0,92,0.00,,,0.00,,2013-10-23 04:14:00,
2013-10-22 23:24:00,43.0,41.0,30.06,WNW,284,0.0,0.0,92,0.00,,,0.00,,2013-10-23 04:24:00,
2013-10-22 23:45:00,43.0,41.0,30.06,WNW,284,0.0,0.0,92,0.00,,,0.00,,2013-10-23 04:45:00,
2013-10-22 23:55:00,42.0,40.0,30.06,WNW,284,0.0,0.0,93,0.00,,,0.00,,2013-10-23 04:55:00,